LIPZLIBD

Guest
Details From LIPZ - Venezia Tessera
To LIBD - Bari Palese Macchie
Flight Number -
Tags generated
Created
Modified
Stats Distance 333 nm / 616 km
Max Altitude 35,000 ft / 10,668 m
Waypoints 7
Social Downloads 0
Likes 0
Share VATSIM

Download

Looking for another format? Having issues loading an existing format? Contact us
Advertisement - Login to hide

Notes

Basic altitude profile: - Ascent Rate: 2500ft/min - Ascent Speed: 250kts - Cruise Altitude: 35000ft - Cruise Speed: 420kts - Descent Rate: 1500ft/min - Descent Speed: 250kts Options: - Use NATs: yes - Use PACOTS: yes - Use low airways: yes - Use high airways: no

Route

LIPZ LANLI L612 POLYP LIBD

ID Type Via Altitude (ft/m) Position (lat/lon) Dist (leg/tot) Name
O LIPZ APT - 0 / 0 45.50479 / 12.34969 - / 0 nm Venezia Tessera
LANLI FIX - 35,000 / 10,668 43.95722 / 13.18056 99 / 99 nm
ANC VOR L612 (AWY-LO) 35,000 / 10,668 43.58639 / 13.47111 25 / 125 nm ANCONA VOR-DME
NUTRO FIX L612 (AWY-LO) 35,000 / 10,668 43.16000 / 14.14917 39 / 164 nm
ARPIK FIX L612 (AWY-LO) 28,000 / 8,534 42.74694 / 14.79222 37 / 201 nm
POLYP FIX L612 (AWY-LO) 22,800 / 6,949 42.47833 / 15.20250 24 / 226 nm
O LIBD APT - 0 / 0 41.13787 / 16.75832 106 / 332 nm Bari Palese Macchie

Altitude Profile

Advertisement - Login to hide

Weather


0- 5 10 15 20 25 30 35+ Temperature / °C

Clouds and Precipitation
Forecast for 2018-10-21 18:00 UTC. Updated 2 hours ago

Ground ~20,000 ft ~40,000 ft Winds

LIPZ

Details ICAO LIPZ (VCE)
Name Venezia Tessera
Region Italy
Timezone Europe/Rome (UTC+2.0)
Stats Elevation 5 ft / 2 m (AMSL)
Location 45.504800° 12.349700°
Runways 2
Magnetic Variation 3.276° E

METAR

LIPZ 211720Z 31006KT 9999 FEW070 11/09 Q1023 NOSIG

Decode

TAF

TAF LIPZ 211100Z 2112/2218 06014KT 8000 SCT030 TEMPO 2112/2118 4000 TSRA

Decode

Departure Runways

ID Width Length Bearing (true/mag) Surface Threshold Overrun Markings Lighting
04L 148 ft / 45 m 9,112 ft / 2,777 m 42.01° / 38.73° ASPHALT 312 ft / 95 m 0 ft / 0 m PREC-APP EDGE THRESHOLD MALSR REIL-OMNI
04R 148 ft / 45 m 10,822 ft / 3,299 m 42.02° / 38.75° ASPHALT 0 ft / 0 m 0 ft / 0 m PREC-APP CENTERLINE EDGE THRESHOLD SSALR TDZ REIL-OMNI
22L 148 ft / 45 m 10,822 ft / 3,299 m 222.04° / 218.77° ASPHALT 0 ft / 0 m 0 ft / 0 m PREC-APP CENTERLINE EDGE THRESHOLD SALS TDZ REIL-OMNI
22R 148 ft / 45 m 9,112 ft / 2,777 m 222.02° / 218.75° ASPHALT 0 ft / 0 m 0 ft / 0 m PREC-APP EDGE THRESHOLD SALS TDZ REIL-OMNI

LIBD

Details ICAO LIBD (BRI)
Name Bari Karol Wojtyla Airport
Region Italy
Timezone Europe/Rome (UTC+2.0)
Stats Elevation 174 ft / 53 m (AMSL)
Location 41.137900° 16.758300°
Runways 1
Magnetic Variation 3.825° E

METAR

LIBD 211720Z 02015KT 8000 FEW015 SCT045 17/13 Q1016

Decode

TAF

TAF LIBD 211100Z 2112/2212 01012KT 9999 FEW030 TEMPO 2118/2212 TSRA= TAF LIBP 211100Z 2112/2212 36012KT 9999 SCT030 TEMPO 2115/2212 TSRA BECMG 2204/2206 VRB05KT

Decode

Destination Runways

ID Width Length Bearing (true/mag) Surface Threshold Overrun Markings Lighting
07 148 ft / 45 m 9,260 ft / 2,823 m 69.39° / 65.56° CONCRETE 1,220 ft / 372 m 0 ft / 0 m PREC-APP CENTERLINE EDGE THRESHOLD ALSF-II REIL-OMNI
25 148 ft / 45 m 9,260 ft / 2,823 m 249.41° / 245.58° CONCRETE 0 ft / 0 m 0 ft / 0 m PREC-APP CENTERLINE EDGE THRESHOLD SALS

Approach Navaids

Runway Type Ident Frequency Range Bearing (true/mag) Slope Elevation
07 OM OM - - 69.25° / 65.43 ° - 177 ft / 54 m (AMSL)
07 DME BAP 111.35 MHz 18 nm / 33 km - - 183 ft / 56 m (AMSL)
07 LOC-ILS BAP 111.35 MHz 18 nm / 33 km 69.39° / 65.57 ° - 175 ft / 53 m (AMSL)
07 GS BAP 111.35 MHz 10 nm / 19 km 69.39° / 65.57 ° 3.32° 175 ft / 53 m (AMSL)

Popular Alternatives